sensor_id;sensor_type;location;lat;lon;timestamp;P1;durP1;ratioP1;P2;durP2;ratioP2
16760;SDS011;8498;52.516;13.790;2023-09-12T00:03:31;17.35;;;11.30;;
16760;SDS011;8498;52.516;13.790;2023-09-12T00:08:54;18.48;;;11.70;;
16760;SDS011;8498;52.516;13.790;2023-09-12T00:14:17;19.52;;;11.98;;
16760;SDS011;8498;52.516;13.790;2023-09-12T00:19:40;19.25;;;12.38;;
16760;SDS011;8498;52.516;13.790;2023-09-12T00:25:02;18.63;;;12.23;;
16760;SDS011;8498;52.516;13.790;2023-09-12T00:30:25;21.40;;;12.50;;
16760;SDS011;8498;52.516;13.790;2023-09-12T00:35:47;18.83;;;11.15;;
16760;SDS011;8498;52.516;13.790;2023-09-12T00:41:10;23.65;;;13.00;;
16760;SDS011;8498;52.516;13.790;2023-09-12T00:46:32;21.13;;;11.70;;
16760;SDS011;8498;52.516;13.790;2023-09-12T00:51:56;21.38;;;11.98;;
16760;SDS011;8498;52.516;13.790;2023-09-12T00:57:20;21.77;;;12.05;;
16760;SDS011;8498;52.516;13.790;2023-09-12T01:02:44;21.02;;;11.65;;
16760;SDS011;8498;52.516;13.790;2023-09-12T01:08:08;20.48;;;12.98;;
16760;SDS011;8498;52.516;13.790;2023-09-12T01:13:31;19.50;;;11.38;;
16760;SDS011;8498;52.516;13.790;2023-09-12T01:18:54;21.67;;;12.30;;
16760;SDS011;8498;52.516;13.790;2023-09-12T01:30:17;20.42;;;12.15;;
16760;SDS011;8498;52.516;13.790;2023-09-12T01:35:40;20.65;;;12.10;;
16760;SDS011;8498;52.516;13.790;2023-09-12T01:41:03;19.95;;;12.68;;
16760;SDS011;8498;52.516;13.790;2023-09-12T01:46:26;20.95;;;11.63;;
16760;SDS011;8498;52.516;13.790;2023-09-12T01:51:50;19.67;;;13.03;;
16760;SDS011;8498;52.516;13.790;2023-09-12T01:57:14;16.10;;;11.75;;
16760;SDS011;8498;52.516;13.790;2023-09-12T02:02:37;20.00;;;12.33;;
16760;SDS011;8498;52.516;13.790;2023-09-12T02:07:59;23.33;;;12.07;;
16760;SDS011;8498;52.516;13.790;2023-09-12T02:13:23;18.93;;;11.50;;
16760;SDS011;8498;52.516;13.790;2023-09-12T02:18:45;20.10;;;12.50;;
16760;SDS011;8498;52.516;13.790;2023-09-12T02:24:08;21.17;;;11.77;;
16760;SDS011;8498;52.516;13.790;2023-09-12T02:29:30;24.52;;;11.93;;
16760;SDS011;8498;52.516;13.790;2023-09-12T02:34:54;23.33;;;12.13;;
16760;SDS011;8498;52.516;13.790;2023-09-12T02:40:19;24.20;;;13.07;;
16760;SDS011;8498;52.516;13.790;2023-09-12T02:45:41;22.20;;;12.40;;
16760;SDS011;8498;52.516;13.790;2023-09-12T02:51:04;20.00;;;12.60;;
16760;SDS011;8498;52.516;13.790;2023-09-12T02:56:27;19.77;;;12.33;;
16760;SDS011;8498;52.516;13.790;2023-09-12T03:01:49;20.20;;;12.18;;
16760;SDS011;8498;52.516;13.790;2023-09-12T03:07:12;22.00;;;13.20;;
16760;SDS011;8498;52.516;13.790;2023-09-12T03:12:37;23.73;;;13.17;;
16760;SDS011;8498;52.516;13.790;2023-09-12T03:18:00;18.35;;;12.45;;
16760;SDS011;8498;52.516;13.790;2023-09-12T03:23:23;18.73;;;12.37;;
16760;SDS011;8498;52.516;13.790;2023-09-12T03:28:45;21.58;;;13.00;;
16760;SDS011;8498;52.516;13.790;2023-09-12T03:34:08;21.63;;;12.60;;
16760;SDS011;8498;52.516;13.790;2023-09-12T03:39:31;21.73;;;13.27;;
16760;SDS011;8498;52.516;13.790;2023-09-12T03:44:54;19.50;;;13.00;;
16760;SDS011;8498;52.516;13.790;2023-09-12T03:50:16;20.20;;;12.67;;
16760;SDS011;8498;52.516;13.790;2023-09-12T03:55:38;17.67;;;12.37;;
16760;SDS011;8498;52.516;13.790;2023-09-12T04:01:01;21.27;;;12.63;;
16760;SDS011;8498;52.516;13.790;2023-09-12T04:06:23;20.10;;;12.20;;
16760;SDS011;8498;52.516;13.790;2023-09-12T04:11:46;18.70;;;11.90;;
16760;SDS011;8498;52.516;13.790;2023-09-12T04:17:10;21.83;;;13.57;;
16760;SDS011;8498;52.516;13.790;2023-09-12T04:22:33;18.93;;;12.23;;
16760;SDS011;8498;52.516;13.790;2023-09-12T04:27:56;21.33;;;12.63;;
16760;SDS011;8498;52.516;13.790;2023-09-12T04:33:19;20.23;;;12.87;;
16760;SDS011;8498;52.516;13.790;2023-09-12T04:38:41;18.80;;;12.63;;
16760;SDS011;8498;52.516;13.790;2023-09-12T04:44:04;20.77;;;13.03;;
16760;SDS011;8498;52.516;13.790;2023-09-12T04:49:27;21.17;;;12.80;;
16760;SDS011;8498;52.516;13.790;2023-09-12T04:54:49;21.07;;;12.77;;
16760;SDS011;8498;52.516;13.790;2023-09-12T05:00:12;20.10;;;12.53;;
16760;SDS011;8498;52.516;13.790;2023-09-12T05:05:35;23.77;;;14.20;;
16760;SDS011;8498;52.516;13.790;2023-09-12T05:11:01;25.03;;;14.10;;
16760;SDS011;8498;52.516;13.790;2023-09-12T05:16:25;20.27;;;12.73;;
16760;SDS011;8498;52.516;13.790;2023-09-12T05:21:48;18.77;;;12.87;;
16760;SDS011;8498;52.516;13.790;2023-09-12T05:27:11;22.73;;;13.83;;
16760;SDS011;8498;52.516;13.790;2023-09-12T05:32:34;23.37;;;13.83;;
16760;SDS011;8498;52.516;13.790;2023-09-12T05:37:59;22.63;;;13.70;;
16760;SDS011;8498;52.516;13.790;2023-09-12T05:43:21;24.13;;;13.47;;
16760;SDS011;8498;52.516;13.790;2023-09-12T05:48:45;21.07;;;13.13;;
16760;SDS011;8498;52.516;13.790;2023-09-12T05:54:08;23.70;;;14.47;;
16760;SDS011;8498;52.516;13.790;2023-09-12T05:59:32;24.67;;;13.20;;
16760;SDS011;8498;52.516;13.790;2023-09-12T06:04:56;26.17;;;13.27;;
16760;SDS011;8498;52.516;13.790;2023-09-12T06:10:19;20.57;;;13.47;;
16760;SDS011;8498;52.516;13.790;2023-09-12T06:15:41;22.57;;;12.77;;
16760;SDS011;8498;52.516;13.790;2023-09-12T06:21:04;29.10;;;14.93;;
16760;SDS011;8498;52.516;13.790;2023-09-12T06:26:30;26.33;;;15.13;;
16760;SDS011;8498;52.516;13.790;2023-09-12T06:31:53;22.73;;;13.68;;
16760;SDS011;8498;52.516;13.790;2023-09-12T06:37:16;21.65;;;13.65;;
16760;SDS011;8498;52.516;13.790;2023-09-12T06:42:39;23.85;;;15.18;;
16760;SDS011;8498;52.516;13.790;2023-09-12T06:48:01;24.98;;;15.02;;
16760;SDS011;8498;52.516;13.790;2023-09-12T06:53:23;21.80;;;14.93;;
16760;SDS011;8498;52.516;13.790;2023-09-12T06:58:46;27.75;;;16.20;;
16760;SDS011;8498;52.516;13.790;2023-09-12T07:04:09;29.75;;;15.68;;
16760;SDS011;8498;52.516;13.790;2023-09-12T07:09:31;28.45;;;14.88;;
16760;SDS011;8498;52.516;13.790;2023-09-12T07:14:54;20.60;;;14.00;;
16760;SDS011;8498;52.516;13.790;2023-09-12T07:20:18;19.90;;;12.18;;
16760;SDS011;8498;52.516;13.790;2023-09-12T07:25:42;18.70;;;11.02;;
16760;SDS011;8498;52.516;13.790;2023-09-12T07:31:04;17.92;;;11.43;;
16760;SDS011;8498;52.516;13.790;2023-09-12T07:36:27;17.83;;;10.38;;
16760;SDS011;8498;52.516;13.790;2023-09-12T07:41:50;17.40;;;10.23;;
16760;SDS011;8498;52.516;13.790;2023-09-12T07:47:12;15.05;;;8.75;;
16760;SDS011;8498;52.516;13.790;2023-09-12T07:52:36;19.38;;;9.50;;
16760;SDS011;8498;52.516;13.790;2023-09-12T07:57:58;15.38;;;9.20;;
16760;SDS011;8498;52.516;13.790;2023-09-12T08:03:21;14.35;;;8.35;;
16760;SDS011;8498;52.516;13.790;2023-09-12T08:08:43;13.38;;;8.00;;
16760;SDS011;8498;52.516;13.790;2023-09-12T08:14:07;14.15;;;7.78;;
16760;SDS011;8498;52.516;13.790;2023-09-12T08:19:29;16.75;;;8.38;;
16760;SDS011;8498;52.516;13.790;2023-09-12T08:24:52;14.57;;;7.05;;
16760;SDS011;8498;52.516;13.790;2023-09-12T08:30:15;13.68;;;6.85;;
16760;SDS011;8498;52.516;13.790;2023-09-12T08:35:37;13.82;;;7.55;;
16760;SDS011;8498;52.516;13.790;2023-09-12T08:41:00;14.63;;;6.78;;
16760;SDS011;8498;52.516;13.790;2023-09-12T08:46:23;19.27;;;7.32;;
16760;SDS011;8498;52.516;13.790;2023-09-12T08:51:45;13.77;;;7.45;;
16760;SDS011;8498;52.516;13.790;2023-09-12T08:57:08;21.88;;;9.85;;
16760;SDS011;8498;52.516;13.790;2023-09-12T09:02:33;14.65;;;7.13;;
16760;SDS011;8498;52.516;13.790;2023-09-12T09:07:56;15.77;;;7.82;;
16760;SDS011;8498;52.516;13.790;2023-09-12T09:13:21;16.77;;;7.65;;
16760;SDS011;8498;52.516;13.790;2023-09-12T09:18:50;13.13;;;6.22;;
16760;SDS011;8498;52.516;13.790;2023-09-12T09:24:20;19.17;;;6.30;;
16760;SDS011;8498;52.516;13.790;2023-09-12T09:29:47;13.52;;;6.07;;
16760;SDS011;8498;52.516;13.790;2023-09-12T09:35:10;12.57;;;6.15;;
16760;SDS011;8498;52.516;13.790;2023-09-12T09:40:33;11.57;;;6.07;;
16760;SDS011;8498;52.516;13.790;2023-09-12T09:45:56;20.05;;;6.95;;
16760;SDS011;8498;52.516;13.790;2023-09-12T09:51:21;13.02;;;6.03;;
16760;SDS011;8498;52.516;13.790;2023-09-12T09:56:47;9.75;;;6.40;;
16760;SDS011;8498;52.516;13.790;2023-09-12T10:02:14;23.33;;;7.05;;
16760;SDS011;8498;52.516;13.790;2023-09-12T10:07:41;12.02;;;5.68;;
16760;SDS011;8498;52.516;13.790;2023-09-12T10:13:08;11.75;;;5.78;;
16760;SDS011;8498;52.516;13.790;2023-09-12T10:18:33;17.08;;;6.57;;
16760;SDS011;8498;52.516;13.790;2023-09-12T10:24:03;12.30;;;5.57;;
16760;SDS011;8498;52.516;13.790;2023-09-12T10:29:26;13.00;;;5.30;;
16760;SDS011;8498;52.516;13.790;2023-09-12T10:34:49;13.13;;;5.82;;
16760;SDS011;8498;52.516;13.790;2023-09-12T10:40:13;12.30;;;5.75;;
16760;SDS011;8498;52.516;13.790;2023-09-12T10:45:39;17.45;;;6.63;;
16760;SDS011;8498;52.516;13.790;2023-09-12T10:51:02;12.38;;;5.60;;
16760;SDS011;8498;52.516;13.790;2023-09-12T10:56:27;31.67;;;6.20;;
16760;SDS011;8498;52.516;13.790;2023-09-12T11:01:54;12.95;;;5.28;;
16760;SDS011;8498;52.516;13.790;2023-09-12T11:12:58;14.20;;;5.95;;
16760;SDS011;8498;52.516;13.790;2023-09-12T11:18:21;21.15;;;6.68;;
16760;SDS011;8498;52.516;13.790;2023-09-12T11:23:48;14.63;;;6.10;;
16760;SDS011;8498;52.516;13.790;2023-09-12T11:29:16;18.08;;;5.55;;
16760;SDS011;8498;52.516;13.790;2023-09-12T11:34:41;17.38;;;6.47;;
16760;SDS011;8498;52.516;13.790;2023-09-12T11:45:33;13.65;;;5.05;;
16760;SDS011;8498;52.516;13.790;2023-09-12T11:50:56;10.10;;;5.55;;
16760;SDS011;8498;52.516;13.790;2023-09-12T11:56:18;19.48;;;5.68;;
16760;SDS011;8498;52.516;13.790;2023-09-12T12:01:41;16.33;;;5.85;;
16760;SDS011;8498;52.516;13.790;2023-09-12T12:07:04;12.65;;;5.68;;
16760;SDS011;8498;52.516;13.790;2023-09-12T12:12:28;12.15;;;6.07;;
16760;SDS011;8498;52.516;13.790;2023-09-12T12:17:53;15.60;;;6.50;;
16760;SDS011;8498;52.516;13.790;2023-09-12T12:23:17;9.23;;;5.20;;
16760;SDS011;8498;52.516;13.790;2023-09-12T12:28:39;10.80;;;5.35;;
16760;SDS011;8498;52.516;13.790;2023-09-12T12:34:04;19.67;;;5.70;;
16760;SDS011;8498;52.516;13.790;2023-09-12T12:39:46;14.57;;;5.18;;
16760;SDS011;8498;52.516;13.790;2023-09-12T12:45:13;14.80;;;5.60;;
16760;SDS011;8498;52.516;13.790;2023-09-12T12:50:37;14.60;;;5.50;;
16760;SDS011;8498;52.516;13.790;2023-09-12T12:56:00;13.70;;;5.80;;
16760;SDS011;8498;52.516;13.790;2023-09-12T13:01:23;11.05;;;5.10;;
16760;SDS011;8498;52.516;13.790;2023-09-12T13:06:47;11.57;;;5.53;;
16760;SDS011;8498;52.516;13.790;2023-09-12T13:12:09;19.48;;;5.80;;
16760;SDS011;8498;52.516;13.790;2023-09-12T13:17:32;13.23;;;5.40;;
16760;SDS011;8498;52.516;13.790;2023-09-12T13:22:55;17.13;;;6.03;;
16760;SDS011;8498;52.516;13.790;2023-09-12T13:28:17;14.43;;;6.72;;
16760;SDS011;8498;52.516;13.790;2023-09-12T13:33:40;21.23;;;5.88;;
16760;SDS011;8498;52.516;13.790;2023-09-12T13:39:06;10.45;;;4.78;;
16760;SDS011;8498;52.516;13.790;2023-09-12T13:44:29;17.83;;;5.32;;
16760;SDS011;8498;52.516;13.790;2023-09-12T13:49:52;12.88;;;5.30;;
16760;SDS011;8498;52.516;13.790;2023-09-12T13:55:15;15.45;;;6.63;;
16760;SDS011;8498;52.516;13.790;2023-09-12T14:00:58;12.40;;;5.70;;
16760;SDS011;8498;52.516;13.790;2023-09-12T14:06:20;15.35;;;5.63;;
16760;SDS011;8498;52.516;13.790;2023-09-12T14:11:43;15.35;;;5.70;;
16760;SDS011;8498;52.516;13.790;2023-09-12T14:17:07;17.85;;;6.70;;
16760;SDS011;8498;52.516;13.790;2023-09-12T14:22:30;15.77;;;5.60;;
16760;SDS011;8498;52.516;13.790;2023-09-12T14:27:53;17.33;;;5.70;;
16760;SDS011;8498;52.516;13.790;2023-09-12T14:33:16;14.02;;;5.85;;
16760;SDS011;8498;52.516;13.790;2023-09-12T14:38:40;15.50;;;5.45;;
16760;SDS011;8498;52.516;13.790;2023-09-12T14:44:03;17.42;;;5.63;;
16760;SDS011;8498;52.516;13.790;2023-09-12T14:49:27;20.20;;;5.80;;
16760;SDS011;8498;52.516;13.790;2023-09-12T14:54:53;15.93;;;6.00;;
16760;SDS011;8498;52.516;13.790;2023-09-12T15:00:17;17.83;;;5.80;;
16760;SDS011;8498;52.516;13.790;2023-09-12T15:05:40;13.70;;;5.63;;
16760;SDS011;8498;52.516;13.790;2023-09-12T15:11:02;17.42;;;5.32;;
16760;SDS011;8498;52.516;13.790;2023-09-12T15:16:25;15.52;;;5.75;;
16760;SDS011;8498;52.516;13.790;2023-09-12T15:21:48;13.20;;;5.40;;
16760;SDS011;8498;52.516;13.790;2023-09-12T15:33:54;14.65;;;5.10;;
16760;SDS011;8498;52.516;13.790;2023-09-12T15:39:18;14.73;;;5.57;;
16760;SDS011;8498;52.516;13.790;2023-09-12T15:44:40;13.13;;;5.68;;
16760;SDS011;8498;52.516;13.790;2023-09-12T15:50:22;13.18;;;5.38;;
16760;SDS011;8498;52.516;13.790;2023-09-12T15:55:45;5.68;;;4.35;;
16760;SDS011;8498;52.516;13.790;2023-09-12T16:01:10;4.72;;;3.53;;
16760;SDS011;8498;52.516;13.790;2023-09-12T16:06:34;4.60;;;3.22;;
16760;SDS011;8498;52.516;13.790;2023-09-12T16:11:56;7.80;;;3.28;;
16760;SDS011;8498;52.516;13.790;2023-09-12T16:17:19;2.92;;;2.72;;
16760;SDS011;8498;52.516;13.790;2023-09-12T16:22:41;6.20;;;3.60;;
16760;SDS011;8498;52.516;13.790;2023-09-12T16:28:04;3.38;;;3.08;;
16760;SDS011;8498;52.516;13.790;2023-09-12T16:33:27;5.18;;;3.35;;
16760;SDS011;8498;52.516;13.790;2023-09-12T16:38:50;4.25;;;3.35;;
16760;SDS011;8498;52.516;13.790;2023-09-12T16:44:13;6.80;;;3.88;;
16760;SDS011;8498;52.516;13.790;2023-09-12T16:49:35;8.82;;;3.75;;
16760;SDS011;8498;52.516;13.790;2023-09-12T16:55:01;6.03;;;3.10;;
16760;SDS011;8498;52.516;13.790;2023-09-12T17:00:23;4.68;;;3.13;;
16760;SDS011;8498;52.516;13.790;2023-09-12T17:05:46;4.85;;;3.65;;
16760;SDS011;8498;52.516;13.790;2023-09-12T17:11:08;2.80;;;2.60;;
16760;SDS011;8498;52.516;13.790;2023-09-12T17:16:31;3.65;;;2.83;;
16760;SDS011;8498;52.516;13.790;2023-09-12T17:21:53;7.70;;;3.10;;
16760;SDS011;8498;52.516;13.790;2023-09-12T17:27:16;3.83;;;3.22;;
16760;SDS011;8498;52.516;13.790;2023-09-12T17:32:38;5.40;;;2.95;;
16760;SDS011;8498;52.516;13.790;2023-09-12T17:38:00;4.40;;;2.85;;
16760;SDS011;8498;52.516;13.790;2023-09-12T17:43:23;3.63;;;2.83;;
16760;SDS011;8498;52.516;13.790;2023-09-12T17:48:46;6.28;;;2.92;;
16760;SDS011;8498;52.516;13.790;2023-09-12T17:54:08;10.05;;;3.38;;
16760;SDS011;8498;52.516;13.790;2023-09-12T17:59:30;4.32;;;2.80;;
16760;SDS011;8498;52.516;13.790;2023-09-12T18:04:53;6.03;;;3.70;;
16760;SDS011;8498;52.516;13.790;2023-09-12T18:10:16;7.00;;;3.20;;
16760;SDS011;8498;52.516;13.790;2023-09-12T18:15:38;4.97;;;2.85;;
16760;SDS011;8498;52.516;13.790;2023-09-12T18:21:01;5.45;;;2.70;;
16760;SDS011;8498;52.516;13.790;2023-09-12T18:26:23;4.80;;;2.97;;
16760;SDS011;8498;52.516;13.790;2023-09-12T18:31:48;3.75;;;3.00;;
16760;SDS011;8498;52.516;13.790;2023-09-12T18:37:10;2.80;;;2.60;;
16760;SDS011;8498;52.516;13.790;2023-09-12T18:42:34;3.50;;;2.80;;
16760;SDS011;8498;52.516;13.790;2023-09-12T18:47:57;5.10;;;2.75;;
16760;SDS011;8498;52.516;13.790;2023-09-12T18:53:19;8.02;;;3.53;;
16760;SDS011;8498;52.516;13.790;2023-09-12T18:58:42;3.70;;;2.95;;
16760;SDS011;8498;52.516;13.790;2023-09-12T19:09:48;10.20;;;2.90;;
16760;SDS011;8498;52.516;13.790;2023-09-12T19:15:10;4.13;;;3.20;;
16760;SDS011;8498;52.516;13.790;2023-09-12T19:20:34;5.20;;;3.20;;
16760;SDS011;8498;52.516;13.790;2023-09-12T19:25:57;2.80;;;2.60;;
16760;SDS011;8498;52.516;13.790;2023-09-12T19:31:19;3.50;;;2.97;;
16760;SDS011;8498;52.516;13.790;2023-09-12T19:36:42;4.40;;;3.00;;
16760;SDS011;8498;52.516;13.790;2023-09-12T19:42:06;4.57;;;3.67;;
16760;SDS011;8498;52.516;13.790;2023-09-12T19:47:29;5.72;;;3.03;;
16760;SDS011;8498;52.516;13.790;2023-09-12T19:53:07;5.47;;;3.00;;
16760;SDS011;8498;52.516;13.790;2023-09-12T19:58:31;4.63;;;3.10;;
16760;SDS011;8498;52.516;13.790;2023-09-12T20:03:55;3.90;;;3.13;;
16760;SDS011;8498;52.516;13.790;2023-09-12T20:09:18;4.10;;;2.95;;
16760;SDS011;8498;52.516;13.790;2023-09-12T20:14:40;3.17;;;2.88;;
16760;SDS011;8498;52.516;13.790;2023-09-12T20:20:02;4.03;;;3.13;;
16760;SDS011;8498;52.516;13.790;2023-09-12T20:25:25;12.57;;;3.47;;
16760;SDS011;8498;52.516;13.790;2023-09-12T20:30:47;4.97;;;3.53;;
16760;SDS011;8498;52.516;13.790;2023-09-12T20:36:10;4.78;;;3.20;;
16760;SDS011;8498;52.516;13.790;2023-09-12T20:41:32;5.97;;;3.75;;
16760;SDS011;8498;52.516;13.790;2023-09-12T20:46:56;4.43;;;3.78;;
16760;SDS011;8498;52.516;13.790;2023-09-12T20:52:19;5.72;;;4.03;;
16760;SDS011;8498;52.516;13.790;2023-09-12T20:57:42;6.80;;;3.42;;
16760;SDS011;8498;52.516;13.790;2023-09-12T21:03:04;4.18;;;3.33;;
16760;SDS011;8498;52.516;13.790;2023-09-12T21:08:28;5.88;;;3.35;;
16760;SDS011;8498;52.516;13.790;2023-09-12T21:13:50;5.38;;;3.33;;
16760;SDS011;8498;52.516;13.790;2023-09-12T21:19:13;5.25;;;3.75;;
16760;SDS011;8498;52.516;13.790;2023-09-12T21:24:36;3.88;;;3.45;;
16760;SDS011;8498;52.516;13.790;2023-09-12T21:29:58;5.30;;;3.50;;
16760;SDS011;8498;52.516;13.790;2023-09-12T21:35:21;4.82;;;3.60;;
16760;SDS011;8498;52.516;13.790;2023-09-12T21:40:44;6.22;;;3.70;;
16760;SDS011;8498;52.516;13.790;2023-09-12T21:46:06;3.58;;;2.90;;
16760;SDS011;8498;52.516;13.790;2023-09-12T21:51:29;4.18;;;3.08;;
16760;SDS011;8498;52.516;13.790;2023-09-12T21:56:51;7.35;;;3.42;;
16760;SDS011;8498;52.516;13.790;2023-09-12T22:02:14;5.30;;;3.25;;
16760;SDS011;8498;52.516;13.790;2023-09-12T22:07:37;6.10;;;3.63;;
16760;SDS011;8498;52.516;13.790;2023-09-12T22:12:59;6.45;;;3.45;;
16760;SDS011;8498;52.516;13.790;2023-09-12T22:18:22;4.65;;;3.20;;
16760;SDS011;8498;52.516;13.790;2023-09-12T22:23:48;8.20;;;3.40;;
16760;SDS011;8498;52.516;13.790;2023-09-12T22:29:11;4.28;;;3.35;;
16760;SDS011;8498;52.516;13.790;2023-09-12T22:34:34;11.50;;;4.32;;
16760;SDS011;8498;52.516;13.790;2023-09-12T22:39:58;3.47;;;3.17;;
16760;SDS011;8498;52.516;13.790;2023-09-12T22:45:20;4.90;;;3.58;;
16760;SDS011;8498;52.516;13.790;2023-09-12T22:50:45;5.55;;;3.67;;
16760;SDS011;8498;52.516;13.790;2023-09-12T22:56:08;6.50;;;3.42;;
16760;SDS011;8498;52.516;13.790;2023-09-12T23:01:31;8.50;;;3.92;;
16760;SDS011;8498;52.516;13.790;2023-09-12T23:06:53;5.28;;;3.70;;
16760;SDS011;8498;52.516;13.790;2023-09-12T23:12:16;4.90;;;3.45;;
16760;SDS011;8498;52.516;13.790;2023-09-12T23:17:39;4.40;;;4.00;;
16760;SDS011;8498;52.516;13.790;2023-09-12T23:23:01;4.30;;;3.60;;
16760;SDS011;8498;52.516;13.790;2023-09-12T23:28:25;8.15;;;4.03;;
16760;SDS011;8498;52.516;13.790;2023-09-12T23:33:49;4.75;;;3.67;;
16760;SDS011;8498;52.516;13.790;2023-09-12T23:39:11;9.00;;;4.38;;
16760;SDS011;8498;52.516;13.790;2023-09-12T23:44:34;5.95;;;3.80;;
16760;SDS011;8498;52.516;13.790;2023-09-12T23:49:56;6.55;;;3.60;;
16760;SDS011;8498;52.516;13.790;2023-09-12T23:55:18;7.70;;;4.10;;
